Malad City, ID

08:50 AM MST am 27. November 2014 (GMT -0700)
Middle of city block | Change Station
CLOSE
Current Station
Persönliche Wetterstationen
Location: Malad City, ID
Höhe: 4662 ft
Wetterstationen in der Umgebung

Höhe 4662 ft 42.20 °N, 112.26 °W | Updated 5 seconds ago

Heiter
Heiter
38.7 °F
gefühlte 35 °F
N
5.0
Wind Wechselnd Wind aus Nordost
Gusts 6.0 mph

Heute
Max. -- | schwach -- °F
--% Regenrisiko
Gestern
Max. -- | schwach -- °F
Precip. -- inch
7:34 AM 4:59 PM
Erstes Viertel, 30% visible
Druck 30.28 inch
Sichtweite 10.0 Meilen
Wolken Heiter
Windchill 35 °F
Taupunkt 36 °F
Feuchtigkeit 86%
Regen 0.00 inch
Schneehöhe Nicht verfügbar..
UV 0 von 12
Pollen 1.10 von 12
Luftqualität Nicht verfügbar..
Flu Activity Nicht verfügbar..
METAR KLGU 271451Z AUTO 06003KT 10SM CLR 04/M02 A3027 RMK AO2 SLP253 T00391022 55002

More Conditions Fewer Conditions

Druck 30.28 inch
Sichtweite 10.0 Meilen
Wolken Heiter
Windchill 35 °F
Taupunkt 36 °F
Feuchtigkeit 86%
Regen 0.00 inch
Schneehöhe Nicht verfügbar..
UV 0 von 12
Pollen 1.10 von 12
Luftqualität Nicht verfügbar..
Flu Activity Nicht verfügbar..
METAR KLGU 271451Z AUTO 06003KT 10SM CLR 04/M02 A3027 RMK AO2 SLP253 T00391022 55002

More Conditions Fewer Conditions

10-Day Weather Forecast

Almanac

Astronomie

Nov. 27, 2014 Aufgang Untergang
Genaue Zeit
Bürgerliche Dämmerung
Nautische Dämmerung
Astronomische Dämmerung
Mond
Länge des sichtbaren Lichts
Tageslänge
Tomorrow will be .
, % of the Moon is Illuminated

Heutige Rekorde

State Highs State Lows

Community

WunderPhotos

Upload Photos

1,774,019 Fotos hochgeladen!

WunderBlogs® & News

Nearby

Luftqualität

  Luftqualität LQ Index Schadstoff
Not available.

Schneehöhe

Station Depth Höhe

Erdbebenaktivität

Stadt Distance Mag. Time & Date
Minimum magnitude displayed is 2.5.

küstennahe Wassertemperaturen

Ort Temperatur

Wetterstationen in der Umgebung